Terminal Aerodrome Forecast
Issued by NWS Charleston, WV

Current Version | Previous Version | Graphics & Text | Print | Product List | Glossary On
Versions: 1 2 3 4 5 6 7 8 9 10 11 12 13 14 15 16 17 18 19 20 21 22 23
000
FTUS41 KRLX 221300 AAA
TAFPKB
TAF AMD
KPKB 221311Z 2213/2312 33009KT 3SM SHRA OVC025
     FM221400 26010G17KT P6SM SHRA BKN025
     FM221700 26014G22KT P6SM BKN035
     FM230000 28010G15KT P6SM BKN080
     FM230200 27007KT P6SM SCT080=

USA.gov is the U.S. government's official web portal to all federal, state and local government web resources and services.